sensor_id;sensor_type;location;lat;lon;timestamp;P1;durP1;ratioP1;P2;durP2;ratioP2
59585;SDS011;45408;52.686;7.310;2023-02-18T00:00:59;14.52;;;2.13;;
59585;SDS011;45408;52.686;7.310;2023-02-18T00:03:24;15.95;;;2.08;;
59585;SDS011;45408;52.686;7.310;2023-02-18T00:05:50;10.20;;;1.98;;
59585;SDS011;45408;52.686;7.310;2023-02-18T00:08:16;18.80;;;2.17;;
59585;SDS011;45408;52.686;7.310;2023-02-18T00:10:41;19.57;;;2.80;;
59585;SDS011;45408;52.686;7.310;2023-02-18T00:13:06;9.00;;;1.90;;
59585;SDS011;45408;52.686;7.310;2023-02-18T00:15:33;12.10;;;2.03;;
59585;SDS011;45408;52.686;7.310;2023-02-18T00:17:59;8.52;;;1.83;;
59585;SDS011;45408;52.686;7.310;2023-02-18T00:20:24;13.03;;;2.23;;
59585;SDS011;45408;52.686;7.310;2023-02-18T00:22:49;9.27;;;2.10;;
59585;SDS011;45408;52.686;7.310;2023-02-18T00:25:14;13.10;;;2.40;;
59585;SDS011;45408;52.686;7.310;2023-02-18T00:27:39;14.55;;;2.63;;
59585;SDS011;45408;52.686;7.310;2023-02-18T00:30:05;14.17;;;2.07;;
59585;SDS011;45408;52.686;7.310;2023-02-18T00:32:30;14.10;;;1.95;;
59585;SDS011;45408;52.686;7.310;2023-02-18T00:34:55;14.00;;;2.20;;
59585;SDS011;45408;52.686;7.310;2023-02-18T00:37:20;15.57;;;2.10;;
59585;SDS011;45408;52.686;7.310;2023-02-18T00:39:46;10.73;;;2.03;;
59585;SDS011;45408;52.686;7.310;2023-02-18T00:42:11;10.47;;;2.00;;
59585;SDS011;45408;52.686;7.310;2023-02-18T00:44:36;12.18;;;2.28;;
59585;SDS011;45408;52.686;7.310;2023-02-18T00:47:02;8.87;;;1.53;;
59585;SDS011;45408;52.686;7.310;2023-02-18T00:49:27;8.73;;;2.13;;
59585;SDS011;45408;52.686;7.310;2023-02-18T00:51:52;11.27;;;2.20;;
59585;SDS011;45408;52.686;7.310;2023-02-18T00:54:17;14.67;;;1.97;;
59585;SDS011;45408;52.686;7.310;2023-02-18T00:56:42;8.97;;;2.20;;
59585;SDS011;45408;52.686;7.310;2023-02-18T00:59:08;13.43;;;2.03;;
59585;SDS011;45408;52.686;7.310;2023-02-18T01:01:33;12.10;;;2.27;;
59585;SDS011;45408;52.686;7.310;2023-02-18T01:03:59;10.30;;;2.30;;
59585;SDS011;45408;52.686;7.310;2023-02-18T01:06:24;9.50;;;2.13;;
59585;SDS011;45408;52.686;7.310;2023-02-18T01:08:49;15.60;;;2.73;;
59585;SDS011;45408;52.686;7.310;2023-02-18T01:11:14;8.73;;;1.90;;
59585;SDS011;45408;52.686;7.310;2023-02-18T01:13:40;13.55;;;2.15;;
59585;SDS011;45408;52.686;7.310;2023-02-18T01:16:05;13.07;;;1.92;;
59585;SDS011;45408;52.686;7.310;2023-02-18T01:18:31;13.95;;;2.20;;
59585;SDS011;45408;52.686;7.310;2023-02-18T01:20:56;13.60;;;2.40;;
59585;SDS011;45408;52.686;7.310;2023-02-18T01:23:22;18.02;;;2.65;;
59585;SDS011;45408;52.686;7.310;2023-02-18T01:25:47;11.73;;;2.20;;
59585;SDS011;45408;52.686;7.310;2023-02-18T01:28:12;10.13;;;2.30;;
59585;SDS011;45408;52.686;7.310;2023-02-18T01:30:38;13.35;;;2.70;;
59585;SDS011;45408;52.686;7.310;2023-02-18T01:33:04;17.92;;;2.63;;
59585;SDS011;45408;52.686;7.310;2023-02-18T01:35:29;10.05;;;2.55;;
59585;SDS011;45408;52.686;7.310;2023-02-18T01:37:55;9.67;;;2.27;;
59585;SDS011;45408;52.686;7.310;2023-02-18T01:40:21;21.63;;;2.43;;
59585;SDS011;45408;52.686;7.310;2023-02-18T01:42:47;13.48;;;2.45;;
59585;SDS011;45408;52.686;7.310;2023-02-18T01:50:29;14.00;;;2.90;;
59585;SDS011;45408;52.686;7.310;2023-02-18T01:52:55;10.40;;;2.78;;
59585;SDS011;45408;52.686;7.310;2023-02-18T01:55:20;19.27;;;3.70;;
59585;SDS011;45408;52.686;7.310;2023-02-18T01:57:46;18.23;;;4.55;;
59585;SDS011;45408;52.686;7.310;2023-02-18T02:00:14;12.63;;;3.57;;
59585;SDS011;45408;52.686;7.310;2023-02-18T02:02:41;13.98;;;4.03;;
59585;SDS011;45408;52.686;7.310;2023-02-18T02:05:08;16.63;;;3.95;;
59585;SDS011;45408;52.686;7.310;2023-02-18T02:07:33;17.77;;;4.00;;
59585;SDS011;45408;52.686;7.310;2023-02-18T02:09:58;14.83;;;4.20;;
59585;SDS011;45408;52.686;7.310;2023-02-18T02:12:45;13.75;;;4.75;;
59585;SDS011;45408;52.686;7.310;2023-02-18T02:15:17;17.02;;;4.40;;
59585;SDS011;45408;52.686;7.310;2023-02-18T02:17:55;19.20;;;5.20;;
59585;SDS011;45408;52.686;7.310;2023-02-18T02:23:21;21.40;;;5.22;;
59585;SDS011;45408;52.686;7.310;2023-02-18T02:26:11;16.58;;;5.22;;
59585;SDS011;45408;52.686;7.310;2023-02-18T02:36:54;24.25;;;7.30;;
59585;SDS011;45408;52.686;7.310;2023-02-18T02:39:23;32.77;;;9.43;;
59585;SDS011;45408;52.686;7.310;2023-02-18T02:42:02;20.77;;;8.93;;
59585;SDS011;45408;52.686;7.310;2023-02-18T02:45:04;18.65;;;8.48;;
59585;SDS011;45408;52.686;7.310;2023-02-18T02:47:57;25.85;;;9.77;;
59585;SDS011;45408;52.686;7.310;2023-02-18T02:50:36;24.92;;;10.98;;
59585;SDS011;45408;52.686;7.310;2023-02-18T02:53:00;30.20;;;10.02;;
59585;SDS011;45408;52.686;7.310;2023-02-18T02:55:26;32.60;;;12.25;;
59585;SDS011;45408;52.686;7.310;2023-02-18T02:57:52;25.13;;;10.63;;
59585;SDS011;45408;52.686;7.310;2023-02-18T03:00:20;27.40;;;11.88;;
59585;SDS011;45408;52.686;7.310;2023-02-18T03:05:27;29.90;;;13.30;;
59585;SDS011;45408;52.686;7.310;2023-02-18T03:17:45;45.63;;;18.90;;
59585;SDS011;45408;52.686;7.310;2023-02-18T03:20:14;42.78;;;19.83;;
59585;SDS011;45408;52.686;7.310;2023-02-18T03:22:43;36.38;;;17.20;;
59585;SDS011;45408;52.686;7.310;2023-02-18T03:25:10;35.88;;;16.05;;
59585;SDS011;45408;52.686;7.310;2023-02-18T03:27:40;51.03;;;20.85;;
59585;SDS011;45408;52.686;7.310;2023-02-18T03:30:50;46.25;;;21.58;;
59585;SDS011;45408;52.686;7.310;2023-02-18T03:32:57;45.13;;;21.75;;
59585;SDS011;45408;52.686;7.310;2023-02-18T03:35:24;44.72;;;22.08;;
59585;SDS011;45408;52.686;7.310;2023-02-18T03:37:52;52.70;;;25.75;;
59585;SDS011;45408;52.686;7.310;2023-02-18T03:40:18;51.95;;;23.48;;
59585;SDS011;45408;52.686;7.310;2023-02-18T03:42:43;44.28;;;21.80;;
59585;SDS011;45408;52.686;7.310;2023-02-18T03:45:09;55.23;;;26.33;;
59585;SDS011;45408;52.686;7.310;2023-02-18T03:47:34;56.57;;;24.93;;
59585;SDS011;45408;52.686;7.310;2023-02-18T03:49:59;58.28;;;27.67;;
59585;SDS011;45408;52.686;7.310;2023-02-18T03:52:24;63.10;;;27.77;;
59585;SDS011;45408;52.686;7.310;2023-02-18T03:54:49;68.23;;;29.20;;
59585;SDS011;45408;52.686;7.310;2023-02-18T03:57:15;53.77;;;25.37;;
59585;SDS011;45408;52.686;7.310;2023-02-18T03:59:40;57.70;;;25.53;;
59585;SDS011;45408;52.686;7.310;2023-02-18T04:02:05;50.00;;;25.67;;
59585;SDS011;45408;52.686;7.310;2023-02-18T04:04:31;84.30;;;38.27;;
59585;SDS011;45408;52.686;7.310;2023-02-18T04:06:56;70.88;;;31.20;;
59585;SDS011;45408;52.686;7.310;2023-02-18T04:09:22;58.80;;;27.10;;
59585;SDS011;45408;52.686;7.310;2023-02-18T04:11:47;67.57;;;28.75;;
59585;SDS011;45408;52.686;7.310;2023-02-18T04:14:12;54.97;;;25.30;;
59585;SDS011;45408;52.686;7.310;2023-02-18T04:16:38;65.75;;;26.42;;
59585;SDS011;45408;52.686;7.310;2023-02-18T04:19:03;62.03;;;25.35;;
59585;SDS011;45408;52.686;7.310;2023-02-18T04:21:28;56.83;;;26.83;;
59585;SDS011;45408;52.686;7.310;2023-02-18T04:23:54;52.08;;;24.30;;
59585;SDS011;45408;52.686;7.310;2023-02-18T04:26:19;69.50;;;28.03;;
59585;SDS011;45408;52.686;7.310;2023-02-18T04:28:44;72.53;;;32.40;;
59585;SDS011;45408;52.686;7.310;2023-02-18T04:31:09;53.37;;;23.83;;
59585;SDS011;45408;52.686;7.310;2023-02-18T04:33:35;62.30;;;28.45;;
59585;SDS011;45408;52.686;7.310;2023-02-18T04:36:00;56.60;;;27.33;;
59585;SDS011;45408;52.686;7.310;2023-02-18T04:38:25;63.27;;;26.37;;
59585;SDS011;45408;52.686;7.310;2023-02-18T04:40:51;64.90;;;24.20;;
59585;SDS011;45408;52.686;7.310;2023-02-18T04:43:16;50.97;;;22.97;;
59585;SDS011;45408;52.686;7.310;2023-02-18T04:45:41;55.90;;;22.17;;
59585;SDS011;45408;52.686;7.310;2023-02-18T04:48:06;63.17;;;27.83;;
59585;SDS011;45408;52.686;7.310;2023-02-18T04:50:31;51.13;;;21.13;;
59585;SDS011;45408;52.686;7.310;2023-02-18T04:52:57;67.20;;;30.38;;
59585;SDS011;45408;52.686;7.310;2023-02-18T04:55:22;56.50;;;21.20;;
59585;SDS011;45408;52.686;7.310;2023-02-18T04:57:47;62.10;;;21.73;;
59585;SDS011;45408;52.686;7.310;2023-02-18T05:00:13;42.40;;;19.95;;
59585;SDS011;45408;52.686;7.310;2023-02-18T05:02:39;69.95;;;26.73;;
59585;SDS011;45408;52.686;7.310;2023-02-18T05:05:04;56.03;;;20.00;;
59585;SDS011;45408;52.686;7.310;2023-02-18T05:07:30;56.75;;;21.40;;
59585;SDS011;45408;52.686;7.310;2023-02-18T05:09:55;58.10;;;23.57;;
59585;SDS011;45408;52.686;7.310;2023-02-18T05:12:20;60.07;;;24.23;;
59585;SDS011;45408;52.686;7.310;2023-02-18T05:14:45;48.37;;;18.63;;
59585;SDS011;45408;52.686;7.310;2023-02-18T05:17:10;43.13;;;17.47;;
59585;SDS011;45408;52.686;7.310;2023-02-18T05:19:36;46.60;;;17.40;;
59585;SDS011;45408;52.686;7.310;2023-02-18T05:22:01;40.20;;;16.07;;
59585;SDS011;45408;52.686;7.310;2023-02-18T05:24:26;56.00;;;20.88;;
59585;SDS011;45408;52.686;7.310;2023-02-18T05:26:51;43.03;;;16.73;;
59585;SDS011;45408;52.686;7.310;2023-02-18T05:29:16;43.67;;;18.77;;
59585;SDS011;45408;52.686;7.310;2023-02-18T05:31:42;52.07;;;20.60;;
59585;SDS011;45408;52.686;7.310;2023-02-18T05:34:07;41.43;;;16.70;;
59585;SDS011;45408;52.686;7.310;2023-02-18T05:36:32;45.92;;;17.02;;
59585;SDS011;45408;52.686;7.310;2023-02-18T05:38:58;52.10;;;19.42;;
59585;SDS011;45408;52.686;7.310;2023-02-18T05:41:23;55.03;;;20.20;;
59585;SDS011;45408;52.686;7.310;2023-02-18T05:43:48;52.40;;;18.10;;
59585;SDS011;45408;52.686;7.310;2023-02-18T05:46:32;58.65;;;22.33;;
59585;SDS011;45408;52.686;7.310;2023-02-18T05:48:57;57.92;;;22.00;;
59585;SDS011;45408;52.686;7.310;2023-02-18T05:51:22;53.20;;;17.30;;
59585;SDS011;45408;52.686;7.310;2023-02-18T05:53:48;53.17;;;19.37;;
59585;SDS011;45408;52.686;7.310;2023-02-18T05:56:13;39.13;;;15.30;;
59585;SDS011;45408;52.686;7.310;2023-02-18T05:58:38;43.73;;;15.77;;
59585;SDS011;45408;52.686;7.310;2023-02-18T06:01:03;66.27;;;22.37;;
59585;SDS011;45408;52.686;7.310;2023-02-18T06:03:28;42.30;;;15.90;;
59585;SDS011;45408;52.686;7.310;2023-02-18T06:05:54;39.47;;;14.97;;
59585;SDS011;45408;52.686;7.310;2023-02-18T06:08:19;44.77;;;15.63;;
59585;SDS011;45408;52.686;7.310;2023-02-18T06:10:44;47.50;;;16.23;;
59585;SDS011;45408;52.686;7.310;2023-02-18T06:13:09;41.22;;;13.52;;
59585;SDS011;45408;52.686;7.310;2023-02-18T06:15:35;37.50;;;13.40;;
59585;SDS011;45408;52.686;7.310;2023-02-18T06:18:00;31.70;;;12.57;;
59585;SDS011;45408;52.686;7.310;2023-02-18T06:20:25;31.27;;;12.63;;
59585;SDS011;45408;52.686;7.310;2023-02-18T06:22:50;35.47;;;12.47;;
59585;SDS011;45408;52.686;7.310;2023-02-18T06:25:15;30.17;;;11.13;;
59585;SDS011;45408;52.686;7.310;2023-02-18T06:27:41;34.35;;;12.68;;
59585;SDS011;45408;52.686;7.310;2023-02-18T06:30:06;30.20;;;10.10;;
59585;SDS011;45408;52.686;7.310;2023-02-18T06:32:31;22.20;;;9.43;;
59585;SDS011;45408;52.686;7.310;2023-02-18T06:34:56;27.80;;;10.60;;
59585;SDS011;45408;52.686;7.310;2023-02-18T06:37:22;20.07;;;8.97;;
59585;SDS011;45408;52.686;7.310;2023-02-18T06:39:47;28.10;;;10.90;;
59585;SDS011;45408;52.686;7.310;2023-02-18T06:42:12;21.23;;;8.43;;
59585;SDS011;45408;52.686;7.310;2023-02-18T06:44:37;20.60;;;8.20;;
59585;SDS011;45408;52.686;7.310;2023-02-18T06:47:02;23.00;;;8.63;;
59585;SDS011;45408;52.686;7.310;2023-02-18T06:49:28;28.80;;;11.50;;
59585;SDS011;45408;52.686;7.310;2023-02-18T06:51:54;13.63;;;6.00;;
59585;SDS011;45408;52.686;7.310;2023-02-18T06:54:19;14.93;;;6.30;;
59585;SDS011;45408;52.686;7.310;2023-02-18T06:56:44;19.27;;;7.30;;
59585;SDS011;45408;52.686;7.310;2023-02-18T06:59:09;17.93;;;8.37;;
59585;SDS011;45408;52.686;7.310;2023-02-18T07:01:35;14.65;;;5.40;;
59585;SDS011;45408;52.686;7.310;2023-02-18T07:04:00;15.53;;;6.33;;
59585;SDS011;45408;52.686;7.310;2023-02-18T07:06:26;16.23;;;6.83;;
59585;SDS011;45408;52.686;7.310;2023-02-18T07:08:51;12.27;;;6.03;;
59585;SDS011;45408;52.686;7.310;2023-02-18T07:11:16;13.50;;;5.83;;
59585;SDS011;45408;52.686;7.310;2023-02-18T07:13:41;14.25;;;6.43;;
59585;SDS011;45408;52.686;7.310;2023-02-18T07:16:06;9.77;;;4.40;;
59585;SDS011;45408;52.686;7.310;2023-02-18T07:18:31;10.37;;;5.37;;
59585;SDS011;45408;52.686;7.310;2023-02-18T07:20:57;10.47;;;5.83;;
59585;SDS011;45408;52.686;7.310;2023-02-18T07:23:22;10.07;;;5.80;;
59585;SDS011;45408;52.686;7.310;2023-02-18T07:25:47;8.33;;;4.10;;
59585;SDS011;45408;52.686;7.310;2023-02-18T07:28:12;8.67;;;5.30;;
59585;SDS011;45408;52.686;7.310;2023-02-18T07:30:37;7.70;;;4.35;;
59585;SDS011;45408;52.686;7.310;2023-02-18T07:33:03;8.03;;;4.90;;
59585;SDS011;45408;52.686;7.310;2023-02-18T07:35:28;7.33;;;4.53;;
59585;SDS011;45408;52.686;7.310;2023-02-18T07:37:53;9.98;;;6.13;;
59585;SDS011;45408;52.686;7.310;2023-02-18T07:40:19;8.20;;;5.20;;
59585;SDS011;45408;52.686;7.310;2023-02-18T07:42:45;10.88;;;7.10;;
59585;SDS011;45408;52.686;7.310;2023-02-18T07:45:10;9.17;;;5.60;;
59585;SDS011;45408;52.686;7.310;2023-02-18T07:47:35;8.35;;;4.90;;
59585;SDS011;45408;52.686;7.310;2023-02-18T07:50:01;15.27;;;8.60;;
59585;SDS011;45408;52.686;7.310;2023-02-18T07:52:26;11.13;;;6.90;;
59585;SDS011;45408;52.686;7.310;2023-02-18T07:54:51;10.82;;;6.78;;
59585;SDS011;45408;52.686;7.310;2023-02-18T07:57:16;11.13;;;6.13;;
59585;SDS011;45408;52.686;7.310;2023-02-18T07:59:41;8.50;;;5.60;;
59585;SDS011;45408;52.686;7.310;2023-02-18T08:02:09;10.18;;;6.70;;
59585;SDS011;45408;52.686;7.310;2023-02-18T08:04:39;10.30;;;5.85;;
59585;SDS011;45408;52.686;7.310;2023-02-18T08:07:04;8.93;;;6.00;;
59585;SDS011;45408;52.686;7.310;2023-02-18T08:09:30;11.35;;;8.13;;
59585;SDS011;45408;52.686;7.310;2023-02-18T08:11:55;12.13;;;7.53;;
59585;SDS011;45408;52.686;7.310;2023-02-18T08:14:20;13.05;;;6.43;;
59585;SDS011;45408;52.686;7.310;2023-02-18T08:16:45;13.10;;;7.70;;
59585;SDS011;45408;52.686;7.310;2023-02-18T08:19:11;12.27;;;7.40;;
59585;SDS011;45408;52.686;7.310;2023-02-18T08:21:36;9.90;;;5.57;;
59585;SDS011;45408;52.686;7.310;2023-02-18T08:24:01;13.97;;;8.10;;
59585;SDS011;45408;52.686;7.310;2023-02-18T08:26:26;13.77;;;9.70;;
59585;SDS011;45408;52.686;7.310;2023-02-18T08:28:51;13.20;;;7.33;;
59585;SDS011;45408;52.686;7.310;2023-02-18T08:31:18;15.30;;;8.37;;
59585;SDS011;45408;52.686;7.310;2023-02-18T08:33:43;12.52;;;7.60;;
59585;SDS011;45408;52.686;7.310;2023-02-18T08:36:08;19.00;;;7.23;;
59585;SDS011;45408;52.686;7.310;2023-02-18T08:38:34;19.33;;;9.13;;
59585;SDS011;45408;52.686;7.310;2023-02-18T08:41:00;14.52;;;6.55;;
59585;SDS011;45408;52.686;7.310;2023-02-18T08:43:26;15.65;;;7.32;;
59585;SDS011;45408;52.686;7.310;2023-02-18T08:45:51;18.90;;;8.93;;
59585;SDS011;45408;52.686;7.310;2023-02-18T08:48:16;15.50;;;9.37;;
59585;SDS011;45408;52.686;7.310;2023-02-18T08:50:41;10.30;;;6.25;;
59585;SDS011;45408;52.686;7.310;2023-02-18T08:53:06;14.00;;;5.83;;
59585;SDS011;45408;52.686;7.310;2023-02-18T08:55:32;14.65;;;7.60;;
59585;SDS011;45408;52.686;7.310;2023-02-18T08:57:58;14.70;;;8.18;;
59585;SDS011;45408;52.686;7.310;2023-02-18T09:00:23;10.15;;;6.80;;
59585;SDS011;45408;52.686;7.310;2023-02-18T09:02:48;16.23;;;7.90;;
59585;SDS011;45408;52.686;7.310;2023-02-18T09:05:13;19.40;;;11.70;;
59585;SDS011;45408;52.686;7.310;2023-02-18T09:07:39;17.27;;;9.40;;
59585;SDS011;45408;52.686;7.310;2023-02-18T09:10:04;14.82;;;9.15;;
59585;SDS011;45408;52.686;7.310;2023-02-18T09:12:30;15.90;;;8.13;;
59585;SDS011;45408;52.686;7.310;2023-02-18T09:14:55;12.50;;;7.50;;
59585;SDS011;45408;52.686;7.310;2023-02-18T09:17:20;16.13;;;8.07;;
59585;SDS011;45408;52.686;7.310;2023-02-18T09:19:45;16.13;;;8.37;;
59585;SDS011;45408;52.686;7.310;2023-02-18T09:22:10;12.77;;;7.77;;
59585;SDS011;45408;52.686;7.310;2023-02-18T09:24:36;12.90;;;6.87;;
59585;SDS011;45408;52.686;7.310;2023-02-18T09:27:02;14.10;;;7.03;;
59585;SDS011;45408;52.686;7.310;2023-02-18T09:29:27;11.52;;;7.72;;
59585;SDS011;45408;52.686;7.310;2023-02-18T09:31:52;13.77;;;8.27;;
59585;SDS011;45408;52.686;7.310;2023-02-18T09:34:18;12.47;;;8.47;;
59585;SDS011;45408;52.686;7.310;2023-02-18T09:36:43;20.43;;;10.70;;
59585;SDS011;45408;52.686;7.310;2023-02-18T09:39:08;10.90;;;6.47;;
59585;SDS011;45408;52.686;7.310;2023-02-18T09:46:55;10.73;;;6.35;;
59585;SDS011;45408;52.686;7.310;2023-02-18T09:49:27;16.10;;;9.05;;
59585;SDS011;45408;52.686;7.310;2023-02-18T09:51:53;17.58;;;8.82;;
59585;SDS011;45408;52.686;7.310;2023-02-18T09:54:19;16.17;;;7.82;;
59585;SDS011;45408;52.686;7.310;2023-02-18T09:56:45;12.75;;;6.72;;
59585;SDS011;45408;52.686;7.310;2023-02-18T09:59:18;13.38;;;6.72;;
59585;SDS011;45408;52.686;7.310;2023-02-18T10:01:44;15.23;;;7.63;;
59585;SDS011;45408;52.686;7.310;2023-02-18T10:06:42;15.10;;;4.70;;
59585;SDS011;45408;52.686;7.310;2023-02-18T10:09:19;12.52;;;5.32;;
59585;SDS011;45408;52.686;7.310;2023-02-18T10:11:45;15.52;;;6.53;;
59585;SDS011;45408;52.686;7.310;2023-02-18T10:14:12;11.45;;;5.35;;
59585;SDS011;45408;52.686;7.310;2023-02-18T10:16:38;12.32;;;5.10;;
59585;SDS011;45408;52.686;7.310;2023-02-18T10:19:04;7.55;;;3.55;;
59585;SDS011;45408;52.686;7.310;2023-02-18T10:21:32;8.77;;;3.63;;
59585;SDS011;45408;52.686;7.310;2023-02-18T10:24:12;12.47;;;4.70;;
59585;SDS011;45408;52.686;7.310;2023-02-18T10:26:40;12.75;;;3.80;;
59585;SDS011;45408;52.686;7.310;2023-02-18T10:29:12;7.63;;;3.08;;
59585;SDS011;45408;52.686;7.310;2023-02-18T10:31:39;9.20;;;3.53;;
59585;SDS011;45408;52.686;7.310;2023-02-18T10:34:21;6.13;;;3.30;;
59585;SDS011;45408;52.686;7.310;2023-02-18T10:36:49;9.40;;;3.70;;
59585;SDS011;45408;52.686;7.310;2023-02-18T10:39:29;8.77;;;3.67;;
59585;SDS011;45408;52.686;7.310;2023-02-18T10:49:59;8.98;;;3.08;;
59585;SDS011;45408;52.686;7.310;2023-02-18T10:52:28;8.15;;;3.00;;
59585;SDS011;45408;52.686;7.310;2023-02-18T10:54:59;13.10;;;3.53;;
59585;SDS011;45408;52.686;7.310;2023-02-18T10:57:24;8.98;;;3.05;;
59585;SDS011;45408;52.686;7.310;2023-02-18T10:59:58;10.98;;;4.00;;
59585;SDS011;45408;52.686;7.310;2023-02-18T11:02:24;10.63;;;2.97;;
59585;SDS011;45408;52.686;7.310;2023-02-18T11:04:50;7.60;;;2.70;;
59585;SDS011;45408;52.686;7.310;2023-02-18T11:07:18;15.27;;;3.38;;
59585;SDS011;45408;52.686;7.310;2023-02-18T11:14:49;15.33;;;3.10;;
59585;SDS011;45408;52.686;7.310;2023-02-18T11:17:26;19.05;;;3.90;;
59585;SDS011;45408;52.686;7.310;2023-02-18T11:19:52;15.18;;;3.22;;
59585;SDS011;45408;52.686;7.310;2023-02-18T11:22:19;19.38;;;3.00;;
59585;SDS011;45408;52.686;7.310;2023-02-18T11:24:45;16.83;;;4.28;;
59585;SDS011;45408;52.686;7.310;2023-02-18T11:27:19;13.65;;;4.00;;
59585;SDS011;45408;52.686;7.310;2023-02-18T11:29:47;12.00;;;3.28;;
59585;SDS011;45408;52.686;7.310;2023-02-18T11:32:13;12.93;;;3.40;;
59585;SDS011;45408;52.686;7.310;2023-02-18T11:34:40;9.33;;;3.27;;
59585;SDS011;45408;52.686;7.310;2023-02-18T11:37:07;15.10;;;3.30;;
59585;SDS011;45408;52.686;7.310;2023-02-18T11:39:33;11.98;;;2.75;;
59585;SDS011;45408;52.686;7.310;2023-02-18T11:42:03;9.95;;;2.20;;
59585;SDS011;45408;52.686;7.310;2023-02-18T11:46:59;21.60;;;3.78;;
59585;SDS011;45408;52.686;7.310;2023-02-18T11:49:25;19.67;;;2.83;;
59585;SDS011;45408;52.686;7.310;2023-02-18T11:51:50;18.00;;;3.28;;
59585;SDS011;45408;52.686;7.310;2023-02-18T11:54:26;23.52;;;3.53;;
59585;SDS011;45408;52.686;7.310;2023-02-18T11:56:57;16.92;;;3.53;;
59585;SDS011;45408;52.686;7.310;2023-02-18T11:59:24;9.38;;;2.60;;
59585;SDS011;45408;52.686;7.310;2023-02-18T12:01:52;17.60;;;2.35;;
59585;SDS011;45408;52.686;7.310;2023-02-18T12:04:20;12.40;;;3.20;;
59585;SDS011;45408;52.686;7.310;2023-02-18T12:06:50;16.83;;;3.70;;
59585;SDS011;45408;52.686;7.310;2023-02-18T12:09:29;14.88;;;3.13;;
59585;SDS011;45408;52.686;7.310;2023-02-18T12:11:57;17.73;;;3.63;;
59585;SDS011;45408;52.686;7.310;2023-02-18T12:14:23;14.63;;;2.70;;
59585;SDS011;45408;52.686;7.310;2023-02-18T12:27:26;19.83;;;3.80;;
59585;SDS011;45408;52.686;7.310;2023-02-18T12:32:23;12.38;;;2.90;;
59585;SDS011;45408;52.686;7.310;2023-02-18T12:45:37;13.52;;;3.35;;
59585;SDS011;45408;52.686;7.310;2023-02-18T12:53:29;11.15;;;2.63;;
59585;SDS011;45408;52.686;7.310;2023-02-18T13:06:52;15.18;;;3.35;;
59585;SDS011;45408;52.686;7.310;2023-02-18T13:09:28;15.70;;;2.90;;
59585;SDS011;45408;52.686;7.310;2023-02-18T13:11:58;13.38;;;2.55;;
59585;SDS011;45408;52.686;7.310;2023-02-18T13:14:31;13.95;;;2.88;;
59585;SDS011;45408;52.686;7.310;2023-02-18T13:16:57;7.13;;;2.50;;
59585;SDS011;45408;52.686;7.310;2023-02-18T13:19:29;9.40;;;2.95;;
59585;SDS011;45408;52.686;7.310;2023-02-18T13:22:01;8.73;;;2.95;;
59585;SDS011;45408;52.686;7.310;2023-02-18T13:24:35;8.75;;;2.40;;
59585;SDS011;45408;52.686;7.310;2023-02-18T13:27:04;10.52;;;2.70;;
59585;SDS011;45408;52.686;7.310;2023-02-18T13:29:35;9.10;;;2.30;;
59585;SDS011;45408;52.686;7.310;2023-02-18T13:37:18;16.52;;;3.75;;
59585;SDS011;45408;52.686;7.310;2023-02-18T13:39:46;12.30;;;2.35;;
59585;SDS011;45408;52.686;7.310;2023-02-18T13:47:13;17.50;;;2.97;;
59585;SDS011;45408;52.686;7.310;2023-02-18T13:49:57;8.82;;;2.33;;
59585;SDS011;45408;52.686;7.310;2023-02-18T13:52:22;13.77;;;3.73;;
59585;SDS011;45408;52.686;7.310;2023-02-18T13:54:47;15.77;;;2.67;;
59585;SDS011;45408;52.686;7.310;2023-02-18T13:59:45;10.57;;;2.80;;
59585;SDS011;45408;52.686;7.310;2023-02-18T14:02:28;12.05;;;2.38;;
59585;SDS011;45408;52.686;7.310;2023-02-18T14:04:57;10.20;;;2.35;;
59585;SDS011;45408;52.686;7.310;2023-02-18T14:07:43;12.88;;;3.00;;
59585;SDS011;45408;52.686;7.310;2023-02-18T14:20:27;12.43;;;3.22;;
59585;SDS011;45408;52.686;7.310;2023-02-18T14:22:53;9.75;;;2.63;;
59585;SDS011;45408;52.686;7.310;2023-02-18T14:27:44;8.47;;;2.13;;
59585;SDS011;45408;52.686;7.310;2023-02-18T14:32:40;6.72;;;2.55;;
59585;SDS011;45408;52.686;7.310;2023-02-18T14:35:07;10.77;;;2.72;;
59585;SDS011;45408;52.686;7.310;2023-02-18T14:37:39;10.38;;;2.80;;
59585;SDS011;45408;52.686;7.310;2023-02-18T14:45:32;18.93;;;3.60;;
59585;SDS011;45408;52.686;7.310;2023-02-18T14:50:31;11.40;;;2.65;;
59585;SDS011;45408;52.686;7.310;2023-02-18T14:52:57;12.50;;;3.03;;
59585;SDS011;45408;52.686;7.310;2023-02-18T14:55:33;13.05;;;3.10;;
59585;SDS011;45408;52.686;7.310;2023-02-18T14:58:00;12.38;;;2.95;;
59585;SDS011;45408;52.686;7.310;2023-02-18T15:00:27;14.70;;;3.10;;
59585;SDS011;45408;52.686;7.310;2023-02-18T15:02:56;13.10;;;2.85;;
59585;SDS011;45408;52.686;7.310;2023-02-18T15:05:23;11.80;;;2.83;;
59585;SDS011;45408;52.686;7.310;2023-02-18T15:07:58;12.77;;;3.53;;
59585;SDS011;45408;52.686;7.310;2023-02-18T15:10:30;15.38;;;3.25;;
59585;SDS011;45408;52.686;7.310;2023-02-18T15:12:57;15.18;;;2.88;;
59585;SDS011;45408;52.686;7.310;2023-02-18T15:15:24;8.80;;;2.58;;
59585;SDS011;45408;52.686;7.310;2023-02-18T15:17:50;17.75;;;2.92;;
59585;SDS011;45408;52.686;7.310;2023-02-18T15:20:15;14.30;;;2.95;;
59585;SDS011;45408;52.686;7.310;2023-02-18T15:22:41;15.85;;;3.03;;
59585;SDS011;45408;52.686;7.310;2023-02-18T15:25:08;13.65;;;3.25;;
59585;SDS011;45408;52.686;7.310;2023-02-18T15:27:37;19.40;;;3.60;;
59585;SDS011;45408;52.686;7.310;2023-02-18T15:30:19;14.32;;;3.08;;
59585;SDS011;45408;52.686;7.310;2023-02-18T15:32:49;10.00;;;2.55;;
59585;SDS011;45408;52.686;7.310;2023-02-18T15:35:15;13.45;;;2.22;;
59585;SDS011;45408;52.686;7.310;2023-02-18T15:37:43;9.90;;;2.42;;
59585;SDS011;45408;52.686;7.310;2023-02-18T15:40:13;11.23;;;2.80;;
59585;SDS011;45408;52.686;7.310;2023-02-18T15:42:38;9.60;;;2.70;;
59585;SDS011;45408;52.686;7.310;2023-02-18T15:45:08;10.73;;;3.20;;
59585;SDS011;45408;52.686;7.310;2023-02-18T15:47:42;7.57;;;2.50;;
59585;SDS011;45408;52.686;7.310;2023-02-18T15:50:51;17.25;;;3.05;;
59585;SDS011;45408;52.686;7.310;2023-02-18T15:57:50;12.95;;;3.33;;
59585;SDS011;45408;52.686;7.310;2023-02-18T16:00:18;10.20;;;2.90;;
59585;SDS011;45408;52.686;7.310;2023-02-18T16:03:01;8.93;;;2.63;;
59585;SDS011;45408;52.686;7.310;2023-02-18T16:05:27;7.38;;;2.30;;
59585;SDS011;45408;52.686;7.310;2023-02-18T16:07:56;10.10;;;2.72;;
59585;SDS011;45408;52.686;7.310;2023-02-18T16:10:23;12.77;;;2.80;;
59585;SDS011;45408;52.686;7.310;2023-02-18T16:12:49;8.23;;;2.58;;
59585;SDS011;45408;52.686;7.310;2023-02-18T16:15:27;7.15;;;2.25;;
59585;SDS011;45408;52.686;7.310;2023-02-18T16:17:53;16.35;;;2.47;;
59585;SDS011;45408;52.686;7.310;2023-02-18T16:20:33;11.73;;;2.67;;
59585;SDS011;45408;52.686;7.310;2023-02-18T16:23:09;5.57;;;1.92;;
59585;SDS011;45408;52.686;7.310;2023-02-18T16:25:42;11.15;;;2.65;;
59585;SDS011;45408;52.686;7.310;2023-02-18T16:28:22;13.93;;;2.17;;
59585;SDS011;45408;52.686;7.310;2023-02-18T16:30:48;10.15;;;2.40;;
59585;SDS011;45408;52.686;7.310;2023-02-18T16:33:13;16.17;;;2.90;;
59585;SDS011;45408;52.686;7.310;2023-02-18T16:35:38;15.95;;;2.92;;
59585;SDS011;45408;52.686;7.310;2023-02-18T16:38:04;11.65;;;2.22;;
59585;SDS011;45408;52.686;7.310;2023-02-18T16:40:36;8.57;;;1.95;;
59585;SDS011;45408;52.686;7.310;2023-02-18T16:43:08;8.98;;;2.00;;
59585;SDS011;45408;52.686;7.310;2023-02-18T16:45:35;11.70;;;1.80;;
59585;SDS011;45408;52.686;7.310;2023-02-18T16:48:01;8.55;;;1.92;;